createdAt,value
2019-02-12T00:01:01.254Z,6.85
2019-02-12T00:02:11.335Z,6.85
2019-02-12T00:03:21.426Z,6.82
2019-02-12T00:04:32.118Z,6.8
2019-02-12T00:05:42.306Z,6.82
2019-02-12T00:06:52.391Z,6.78
2019-02-12T00:08:02.755Z,6.73
2019-02-12T00:09:12.836Z,6.73
2019-02-12T00:10:22.937Z,6.65
2019-02-12T00:11:33.040Z,6.76
2019-02-12T00:12:43.125Z,6.7
2019-02-12T00:13:53.405Z,6.7
2019-02-12T00:15:03.258Z,6.7
2019-02-12T00:16:13.400Z,6.73
2019-02-12T00:17:23.471Z,6.72
2019-02-12T00:18:33.741Z,6.65
2019-02-12T00:19:43.819Z,6.75
2019-02-12T00:20:53.899Z,6.72
2019-02-12T00:22:04.029Z,6.79
2019-02-12T00:23:14.097Z,6.75
2019-02-12T00:24:24.163Z,6.75
2019-02-12T00:25:34.280Z,6.7
2019-02-12T00:26:44.351Z,6.67
2019-02-12T00:27:54.417Z,6.67
2019-02-12T00:29:04.472Z,6.64
2019-02-12T00:30:14.808Z,6.65
2019-02-12T00:31:25.038Z,6.72
2019-02-12T00:32:35.090Z,6.64
2019-02-12T00:33:45.163Z,6.68
2019-02-12T00:34:55.256Z,6.67
2019-02-12T00:36:05.138Z,6.72
2019-02-12T00:37:14.964Z,6.67
2019-02-12T00:38:25.107Z,6.52
2019-02-12T00:39:35.167Z,6.55
2019-02-12T00:40:46.315Z,6.54
2019-02-12T00:41:56.404Z,6.55
2019-02-12T00:43:06.460Z,6.51
2019-02-12T00:44:16.293Z,6.55
2019-02-12T00:45:26.113Z,6.47
2019-02-12T00:46:36.207Z,6.54
2019-02-12T00:47:46.297Z,6.47
2019-02-12T00:48:56.350Z,6.44
2019-02-12T00:50:06.453Z,6.47
2019-02-12T00:51:22.540Z,6.4
2019-02-12T00:52:32.336Z,6.47
2019-02-12T00:53:42.452Z,6.37
2019-02-12T00:54:52.327Z,6.44
2019-02-12T00:56:02.137Z,6.33
2019-02-12T00:57:12.194Z,6.34
2019-02-12T00:58:22.264Z,6.44
2019-02-12T00:59:32.341Z,6.39
2019-02-12T01:00:42.146Z,6.28
2019-02-12T01:01:52.284Z,6.34
2019-02-12T01:03:02.132Z,6.34
2019-02-12T01:04:12.220Z,6.31
2019-02-12T01:05:22.339Z,6.29
2019-02-12T01:06:32.407Z,6.39
2019-02-12T01:07:42.472Z,6.31
2019-02-12T01:08:52.605Z,6.37
2019-02-12T01:10:03.661Z,6.33
2019-02-12T01:11:13.518Z,6.26
2019-02-12T01:12:24.184Z,6.39
2019-02-12T01:13:34.048Z,6.25
2019-02-12T01:14:44.211Z,6.31
2019-02-12T01:15:54.281Z,6.2
2019-02-12T01:17:04.347Z,6.26
2019-02-12T01:18:14.406Z,6.26
2019-02-12T01:19:24.497Z,6.29
2019-02-12T01:20:34.562Z,6.24
2019-02-12T01:21:44.613Z,6.26
2019-02-12T01:22:54.410Z,6.18
2019-02-12T01:24:04.242Z,6.1
2019-02-12T01:25:14.366Z,6.26
2019-02-12T01:26:24.443Z,6.06
2019-02-12T01:27:34.525Z,6.17
2019-02-12T01:28:44.582Z,6.14
2019-02-12T01:29:54.736Z,6.03
2019-02-12T01:31:04.793Z,6.2
2019-02-12T01:32:15.119Z,6.2
2019-02-12T01:33:25.193Z,6.18
2019-02-12T01:34:34.795Z,6.15
2019-02-12T01:35:44.589Z,6.13
2019-02-12T01:36:54.675Z,6.14
2019-02-12T01:38:04.570Z,6.25
2019-02-12T01:39:14.640Z,6.2
2019-02-12T01:40:24.706Z,6.17
2019-02-12T01:41:34.763Z,6.14
2019-02-12T01:42:45.077Z,6.17
2019-02-12T01:43:55.162Z,6.17
2019-02-12T01:45:05.203Z,6.14
2019-02-12T01:46:15.052Z,6.07
2019-02-12T01:47:24.870Z,6.09
2019-02-12T01:48:34.668Z,6.13
2019-02-12T01:49:45.021Z,6.09
2019-02-12T01:50:55.067Z,6.06
2019-02-12T01:52:04.939Z,6.14
2019-02-12T01:53:15.035Z,6.17
2019-02-12T01:54:25.101Z,6.14
2019-02-12T01:55:35.195Z,6.07
2019-02-12T01:56:45.009Z,6.1
2019-02-12T01:57:55.074Z,6.14
2019-02-12T01:59:07.898Z,6.17
2019-02-12T02:00:18.431Z,6.2
2019-02-12T02:01:28.280Z,6.18
2019-02-12T02:02:38.394Z,6.17
2019-02-12T02:03:48.457Z,6.24
2019-02-12T02:04:58.563Z,6.2
2019-02-12T02:06:08.881Z,6.06
2019-02-12T02:07:19.014Z,6.18
2019-02-12T02:08:29.112Z,6.14
2019-02-12T02:09:39.215Z,6.17
2019-02-12T02:10:49.373Z,6.13
2019-02-12T02:11:59.178Z,6.09
2019-02-12T02:13:09.270Z,6.14
2019-02-12T02:14:19.334Z,6.2
2019-02-12T02:15:29.513Z,6.13
2019-02-12T02:16:39.583Z,6.13
2019-02-12T02:17:49.669Z,6.21
2019-02-12T02:18:59.741Z,6.2
2019-02-12T02:20:09.814Z,6.2
2019-02-12T02:21:19.883Z,6.26
2019-02-12T02:22:29.738Z,6.29
2019-02-12T02:23:39.552Z,6.29
2019-02-12T02:24:49.662Z,6.29
2019-02-12T02:25:59.759Z,6.28
2019-02-12T02:27:10.141Z,6.33
2019-02-12T02:28:20.279Z,6.44
2019-02-12T02:29:30.367Z,6.37
2019-02-12T02:30:40.471Z,6.49
2019-02-12T02:31:50.554Z,6.4
2019-02-12T02:33:01.290Z,6.49
2019-02-12T02:34:11.357Z,6.44
2019-02-12T02:35:21.177Z,6.44
2019-02-12T02:36:31.269Z,6.47
2019-02-12T02:37:41.166Z,6.46
2019-02-12T02:38:51.253Z,6.46
2019-02-12T02:40:02.128Z,6.44
2019-02-12T02:41:12.507Z,6.4
2019-02-12T02:42:22.564Z,6.44
2019-02-12T02:43:32.648Z,6.43
2019-02-12T02:44:42.716Z,6.4
2019-02-12T02:45:52.622Z,6.44
2019-02-12T02:47:04.446Z,6.39
2019-02-12T02:48:14.524Z,6.46
2019-02-12T02:49:24.593Z,6.43
2019-02-12T02:50:34.662Z,6.37
2019-02-12T02:51:53.504Z,6.42
2019-02-12T02:53:03.724Z,6.39
2019-02-12T02:54:13.842Z,6.29
2019-02-12T02:55:23.647Z,6.42
2019-02-12T02:56:33.483Z,6.36
2019-02-12T02:57:43.305Z,6.44
2019-02-12T02:58:53.395Z,6.42
2019-02-12T03:00:05.901Z,6.49
2019-02-12T03:01:16.037Z,6.51
2019-02-12T03:02:26.094Z,6.57
2019-02-12T03:34:09.698Z,4.61
2019-02-12T03:35:19.781Z,4.58
2019-02-12T03:36:29.865Z,4.57
2019-02-12T03:37:39.719Z,4.53
2019-02-12T03:38:49.915Z,4.61
2019-02-12T03:39:59.976Z,4.68
2019-02-12T03:41:10.081Z,4.83
2019-02-12T03:42:20.202Z,4.88
2019-02-12T03:43:30.266Z,4.87
2019-02-12T03:44:40.104Z,5
2019-02-12T03:45:50.167Z,5.1
2019-02-12T03:47:00.314Z,5.18
2019-02-12T03:48:10.574Z,5.27
2019-02-12T03:49:20.424Z,5.27
2019-02-12T03:50:30.622Z,5.42
2019-02-12T03:51:40.454Z,5.48
2019-02-12T03:52:50.523Z,5.6
2019-02-12T03:54:00.602Z,5.67
2019-02-12T03:55:10.685Z,5.78
2019-02-12T03:56:20.765Z,5.95
2019-02-12T03:57:30.835Z,5.96
2019-02-12T03:58:40.900Z,6.07
2019-02-12T03:59:50.954Z,6.06
2019-02-12T04:01:00.790Z,6.17
2019-02-12T04:02:10.866Z,6.2
2019-02-12T04:03:20.738Z,6.33
2019-02-12T04:04:30.795Z,6.34
2019-02-12T04:05:40.359Z,6.44
2019-02-12T04:06:50.419Z,6.44
2019-02-12T04:08:03.384Z,6.51
2019-02-12T04:09:13.211Z,6.47
2019-02-12T04:10:23.031Z,6.49
2019-02-12T04:11:33.079Z,6.52
2019-02-12T04:12:42.894Z,6.54
2019-02-12T04:13:52.978Z,6.54
2019-02-12T04:15:03.092Z,6.58
2019-02-12T04:16:13.166Z,6.62
2019-02-12T04:17:23.234Z,6.7
2019-02-12T04:18:33.090Z,6.72
2019-02-12T04:19:43.159Z,6.76
2019-02-12T04:20:53.232Z,6.79
2019-02-12T04:22:03.037Z,6.78
2019-02-12T04:23:13.128Z,6.7
2019-02-12T04:24:23.219Z,6.64
2019-02-12T04:25:33.385Z,6.75
2019-02-12T04:26:43.438Z,6.75
2019-02-12T04:27:55.337Z,6.8
2019-02-12T04:29:05.713Z,6.8
2019-02-12T04:30:15.803Z,6.8
2019-02-12T04:31:25.897Z,6.83
2019-02-12T04:32:36.121Z,6.83
2019-02-12T04:33:46.193Z,6.82
2019-02-12T04:34:56.268Z,6.85
2019-02-12T04:36:06.078Z,6.85
2019-02-12T04:37:16.189Z,6.83
2019-02-12T04:38:26.359Z,6.82
2019-02-12T04:39:36.436Z,6.88
2019-02-12T04:40:46.505Z,6.86
2019-02-12T04:41:56.586Z,6.79
2019-02-12T04:43:06.675Z,6.8
2019-02-12T04:44:16.801Z,6.91
2019-02-12T04:45:26.909Z,6.8
2019-02-12T04:46:37.224Z,6.8
2019-02-12T04:47:47.264Z,6.79
2019-02-12T04:48:56.820Z,6.78
2019-02-12T04:50:06.894Z,6.86
2019-02-12T04:51:16.974Z,6.82
2019-02-12T04:52:36.598Z,6.9
2019-02-12T04:53:46.672Z,6.82
2019-02-12T04:54:56.775Z,6.86
2019-02-12T04:56:06.939Z,6.78
2019-02-12T04:57:16.765Z,6.83
2019-02-12T04:58:26.569Z,6.78
2019-02-12T04:59:36.385Z,6.76
2019-02-12T05:00:46.468Z,6.83
2019-02-12T05:01:56.331Z,6.78
2019-02-12T05:03:06.163Z,6.78
2019-02-12T05:04:16.255Z,6.76
2019-02-12T05:05:26.444Z,6.75
2019-02-12T05:06:36.293Z,6.78
2019-02-12T05:07:46.357Z,6.78
2019-02-12T05:08:57.949Z,6.78
2019-02-12T05:10:08.129Z,6.78
2019-02-12T05:11:18.199Z,6.73
2019-02-12T05:12:28.321Z,6.75
2019-02-12T05:13:37.889Z,6.8
2019-02-12T05:14:47.990Z,6.83
2019-02-12T05:15:58.261Z,6.85
2019-02-12T05:17:08.027Z,6.86
2019-02-12T05:18:17.849Z,6.82
2019-02-12T05:19:28.008Z,6.88
2019-02-12T05:20:38.118Z,6.83
2019-02-12T05:21:48.209Z,6.86
2019-02-12T05:22:57.774Z,6.78
2019-02-12T05:24:07.840Z,6.8
2019-02-12T05:25:17.977Z,6.75
2019-02-12T05:26:28.058Z,6.76
2019-02-12T05:27:38.187Z,6.75
2019-02-12T05:28:48.267Z,6.75
2019-02-12T05:29:58.336Z,6.78
2019-02-12T05:31:08.762Z,6.76
2019-02-12T05:32:18.686Z,6.68
2019-02-12T05:33:28.502Z,6.64
2019-02-12T05:34:38.806Z,6.68
2019-02-12T05:35:48.857Z,6.75
2019-02-12T05:36:58.954Z,6.64
2019-02-12T05:38:09.097Z,6.73
2019-02-12T05:39:18.910Z,6.75
2019-02-12T05:40:28.977Z,6.75
2019-02-12T05:41:39.500Z,6.76
2019-02-12T05:42:49.773Z,6.73
2019-02-12T05:43:59.567Z,6.7
2019-02-12T05:45:09.642Z,6.65
2019-02-12T05:46:19.754Z,6.7
2019-02-12T05:47:29.826Z,6.68
2019-02-12T05:48:39.945Z,6.67
2019-02-12T05:49:50.052Z,6.7
2019-02-12T05:51:00.098Z,6.68
2019-02-12T05:52:10.192Z,6.58
2019-02-12T05:53:20.341Z,6.6
2019-02-12T05:54:30.514Z,6.6
2019-02-12T05:55:40.603Z,6.55
2019-02-12T05:56:50.712Z,6.58
2019-02-12T05:58:03.132Z,6.47
2019-02-12T05:59:13.335Z,6.46
2019-02-12T06:00:23.434Z,6.42
2019-02-12T06:01:33.516Z,6.4
2019-02-12T06:02:43.606Z,6.52
2019-02-12T06:03:53.670Z,6.46
2019-02-12T06:05:03.837Z,6.46
2019-02-12T06:06:13.899Z,6.47
2019-02-12T06:07:24.928Z,6.44
2019-02-12T06:08:35.006Z,6.44
2019-02-12T06:09:45.081Z,6.47
2019-02-12T06:10:55.312Z,6.54
2019-02-12T06:12:06.975Z,6.61
2019-02-12T06:13:16.779Z,6.58
2019-02-12T06:14:26.875Z,6.65
2019-02-12T06:15:36.944Z,6.64
2019-02-12T06:16:46.541Z,6.64
2019-02-12T06:17:56.417Z,6.67
2019-02-12T06:19:07.387Z,6.7
2019-02-12T06:20:19.043Z,6.68
2019-02-12T06:21:28.839Z,6.64
2019-02-12T06:22:38.915Z,6.7
2019-02-12T06:23:49.028Z,6.7
2019-02-12T06:24:58.831Z,6.78
2019-02-12T06:26:09.076Z,6.78
2019-02-12T06:27:19.143Z,6.75
2019-02-12T06:28:29.272Z,6.78
2019-02-12T06:29:39.359Z,6.78
2019-02-12T06:30:49.171Z,6.79
2019-02-12T06:31:58.984Z,6.8
2019-02-12T06:33:12.566Z,6.8
2019-02-12T06:34:22.693Z,6.79
2019-02-12T06:35:32.779Z,6.91
2019-02-12T06:36:42.882Z,6.97
2019-02-12T06:37:52.969Z,7
2019-02-12T06:39:03.036Z,7.04
2019-02-12T06:40:13.172Z,6.98
2019-02-12T06:41:23.232Z,6.98
2019-02-12T06:42:33.283Z,7.05
2019-02-12T06:43:43.131Z,7.09
2019-02-12T06:44:53.227Z,7.12
2019-02-12T06:46:03.600Z,7.13
2019-02-12T06:47:13.895Z,7.15
2019-02-12T06:48:23.993Z,7.23
2019-02-12T06:49:33.800Z,7.22
2019-02-12T06:50:43.620Z,7.36
2019-02-12T06:51:53.743Z,7.39
2019-02-12T06:53:12.217Z,7.37
2019-02-12T06:54:22.348Z,7.36
2019-02-12T06:55:32.400Z,7.45
2019-02-12T06:56:42.470Z,7.44
2019-02-12T06:57:52.444Z,7.48
2019-02-12T06:59:03.097Z,7.51
2019-02-12T07:00:13.266Z,7.56
2019-02-12T07:01:23.549Z,7.59
2019-02-12T07:02:33.727Z,7.7
2019-02-12T07:03:43.587Z,7.77
2019-02-12T07:04:53.423Z,7.78
2019-02-12T07:06:03.749Z,7.93
2019-02-12T07:07:13.829Z,7.91
2019-02-12T07:08:23.929Z,7.89
2019-02-12T07:09:34.007Z,7.89
2019-02-12T07:10:44.090Z,7.89
2019-02-12T07:11:53.963Z,7.83
2019-02-12T07:13:05.806Z,7.91
2019-02-12T07:14:15.695Z,7.96
2019-02-12T07:15:25.769Z,7.91
2019-02-12T07:16:35.577Z,7.91
2019-02-12T07:17:45.646Z,7.86
2019-02-12T07:18:57.035Z,7.95
2019-02-12T07:20:07.115Z,8.03
2019-02-12T07:21:17.215Z,8.01
2019-02-12T07:22:27.324Z,7.92
2019-02-12T07:23:37.372Z,7.91
2019-02-12T07:24:47.454Z,7.93
2019-02-12T07:25:57.741Z,7.98
2019-02-12T07:27:07.859Z,7.93
2019-02-12T07:28:17.950Z,7.89
2019-02-12T07:29:28.045Z,7.99
2019-02-12T07:30:38.101Z,7.95
2019-02-12T07:31:48.159Z,7.98
2019-02-12T07:32:58.252Z,7.93
2019-02-12T07:34:08.411Z,7.96
2019-02-12T07:35:18.627Z,8.03
2019-02-12T07:36:28.735Z,8.04
2019-02-12T07:37:38.833Z,7.93
2019-02-12T07:38:49.316Z,8.09
2019-02-12T07:39:59.380Z,8.1
2019-02-12T07:41:09.196Z,8.14
2019-02-12T07:42:29.501Z,8.31
2019-02-12T07:43:39.576Z,8.16
2019-02-12T07:44:49.655Z,8.17
2019-02-12T07:45:59.775Z,8.16
2019-02-12T07:47:10.073Z,8.25
2019-02-12T07:48:20.184Z,8.22
2019-02-12T07:49:30.288Z,8.32
2019-02-12T07:50:40.403Z,8.44
2019-02-12T07:51:50.469Z,8.39
2019-02-12T07:53:00.547Z,8.44
2019-02-12T07:54:10.603Z,8.28
2019-02-12T07:55:20.688Z,8.34
2019-02-12T07:56:30.777Z,8.21
2019-02-12T07:57:40.963Z,8.22
2019-02-12T07:58:50.647Z,8.25
2019-02-12T08:00:00.787Z,8.14
2019-02-12T08:01:10.972Z,8.17
2019-02-12T08:02:21.116Z,8.14
2019-02-12T08:03:31.249Z,8.21
2019-02-12T08:04:41.380Z,8.19
2019-02-12T08:05:51.458Z,8.39
2019-02-12T08:07:01.600Z,8.44
2019-02-12T08:08:11.726Z,8.61
2019-02-12T08:09:21.815Z,8.42
2019-02-12T08:10:31.876Z,8.31
2019-02-12T08:11:42.006Z,8.31
2019-02-12T08:12:52.105Z,8.43
2019-02-12T08:14:01.943Z,8.64
2019-02-12T08:15:11.986Z,9.01
2019-02-12T08:16:22.100Z,9.21
2019-02-12T08:17:32.168Z,9.59
2019-02-12T08:18:42.247Z,9.52
2019-02-12T08:19:52.306Z,9.42
2019-02-12T08:21:02.153Z,9.17
2019-02-12T08:22:14.091Z,9.14
2019-02-12T08:23:24.416Z,9.11
2019-02-12T08:24:34.553Z,9.09
2019-02-12T08:25:44.700Z,9.11
2019-02-12T08:26:54.795Z,9
2019-02-12T08:28:05.298Z,9.08
2019-02-12T08:29:15.399Z,9.09
2019-02-12T08:30:25.601Z,9.04
2019-02-12T08:31:35.699Z,8.85
2019-02-12T08:32:45.826Z,8.67
2019-02-12T08:33:55.895Z,8.58
2019-02-12T08:35:06.091Z,8.58
2019-02-12T08:36:16.170Z,8.61
2019-02-12T08:37:26.000Z,8.58
2019-02-12T08:38:37.593Z,8.64
2019-02-12T08:39:47.708Z,8.72
2019-02-12T08:41:00.719Z,8.83
2019-02-12T08:42:10.599Z,8.94
2019-02-12T08:43:20.516Z,8.89
2019-02-12T08:44:30.592Z,8.95
2019-02-12T08:45:40.404Z,9.09
2019-02-12T08:46:53.093Z,9.11
2019-02-12T08:48:03.398Z,9.19
2019-02-12T08:49:13.512Z,9.26
2019-02-12T08:50:23.601Z,9.26
2019-02-12T08:51:33.683Z,9.39
2019-02-12T08:52:43.255Z,9.21
2019-02-12T08:53:55.575Z,9.38
2019-02-12T08:55:06.595Z,9.66
2019-02-12T08:56:16.707Z,9.67
2019-02-12T08:57:26.801Z,9.74
2019-02-12T08:58:36.347Z,9.63
2019-02-12T08:59:46.260Z,9.81
2019-02-12T09:00:56.789Z,9.85
2019-02-12T09:02:06.674Z,9.84
2019-02-12T09:03:16.532Z,9.99
2019-02-12T09:04:26.589Z,10.11
2019-02-12T09:05:36.428Z,10.35
2019-02-12T09:06:46.531Z,10.63
2019-02-12T09:07:56.610Z,10.63
2019-02-12T09:09:07.671Z,10.69
2019-02-12T09:10:17.742Z,10.61
2019-02-12T09:11:27.841Z,10.57
2019-02-12T09:12:37.665Z,10.58
2019-02-12T09:13:47.795Z,10.59
2019-02-12T09:14:57.870Z,10.57
2019-02-12T09:16:08.113Z,10.61
2019-02-12T09:17:18.216Z,10.57
2019-02-12T09:18:29.543Z,10.55
2019-02-12T09:19:40.371Z,10.59
2019-02-12T09:20:50.441Z,10.69
2019-02-12T09:22:00.509Z,10.67
2019-02-12T09:23:10.835Z,10.67
2019-02-12T09:24:21.021Z,10.65
2019-02-12T09:25:31.114Z,10.59
2019-02-12T09:26:40.904Z,10.66
2019-02-12T09:27:50.772Z,10.66
2019-02-12T09:29:03.222Z,10.65
2019-02-12T09:30:13.365Z,10.77
2019-02-12T09:31:23.485Z,10.77
2019-02-12T09:32:33.561Z,10.84
2019-02-12T09:33:43.638Z,10.79
2019-02-12T09:34:53.447Z,10.63
2019-02-12T09:36:03.631Z,10.65
2019-02-12T09:37:13.738Z,10.57
2019-02-12T09:38:24.035Z,10.49
2019-02-12T09:39:34.128Z,10.55
2019-02-12T09:40:44.217Z,10.59
2019-02-12T09:41:54.274Z,10.72
2019-02-12T09:43:04.579Z,10.84
2019-02-12T09:44:14.448Z,10.73
2019-02-12T09:45:24.483Z,10.61
2019-02-12T09:46:34.580Z,10.57
2019-02-12T09:47:44.651Z,10.54
2019-02-12T09:48:55.334Z,10.51
2019-02-12T09:50:06.143Z,10.65
2019-02-12T09:51:16.233Z,10.76
2019-02-12T09:52:26.108Z,10.79
2019-02-12T09:53:36.174Z,10.98
2019-02-12T09:54:46.264Z,11.05
2019-02-12T09:55:56.410Z,11.15
2019-02-12T09:57:06.538Z,11.23
2019-02-12T09:58:16.352Z,11.23
2019-02-12T09:59:26.449Z,11.27
2019-02-12T10:00:36.557Z,11.38
2019-02-12T10:01:46.615Z,11.39
2019-02-12T10:02:56.933Z,11.43
2019-02-12T10:04:06.982Z,11.52
2019-02-12T10:05:17.071Z,11.45
2019-02-12T10:06:29.285Z,11.46
2019-02-12T10:07:39.713Z,11.42
2019-02-12T10:08:49.909Z,11.43
2019-02-12T10:09:59.769Z,11.52
2019-02-12T10:11:09.794Z,11.67
2019-02-12T10:12:19.858Z,11.73
2019-02-12T10:13:30.015Z,11.82
2019-02-12T10:14:40.107Z,11.79
2019-02-12T10:15:49.977Z,11.79
2019-02-12T10:16:59.824Z,11.79
2019-02-12T10:18:10.378Z,11.73
2019-02-12T10:19:20.459Z,11.66
2019-02-12T10:20:30.601Z,11.61
2019-02-12T10:21:40.408Z,11.66
2019-02-12T10:22:50.506Z,11.61
2019-02-12T10:24:02.439Z,11.57
2019-02-12T10:25:12.534Z,11.51
2019-02-12T10:26:22.606Z,11.49
2019-02-12T10:27:32.739Z,11.59
2019-02-12T10:28:51.236Z,11.61
2019-02-12T10:30:01.342Z,11.67
2019-02-12T10:31:11.425Z,11.67
2019-02-12T10:32:21.519Z,11.57
2019-02-12T10:33:31.355Z,11.57
2019-02-12T10:34:41.433Z,11.7
2019-02-12T10:35:51.258Z,11.68
2019-02-12T10:37:01.361Z,11.66
2019-02-12T10:39:22.568Z,11.49
2019-02-12T10:40:32.703Z,11.56
2019-02-12T10:41:42.807Z,11.46
2019-02-12T10:42:52.871Z,11.39
2019-02-12T10:44:03.658Z,11.43
2019-02-12T10:45:13.749Z,11.46
2019-02-12T10:46:23.853Z,11.59
2019-02-12T10:47:33.964Z,11.64
2019-02-12T10:48:43.776Z,11.6
2019-02-12T10:49:53.577Z,11.53
2019-02-12T10:51:05.712Z,11.45
2019-02-12T10:52:15.848Z,11.38
2019-02-12T10:53:25.923Z,11.38
2019-02-12T10:54:37.074Z,11.38
2019-02-12T10:55:46.881Z,11.42
2019-02-12T10:56:57.027Z,11.53
2019-02-12T10:58:08.607Z,11.64
2019-02-12T10:59:19.379Z,11.63
2019-02-12T11:00:29.425Z,11.68
2019-02-12T11:01:38.971Z,11.49
2019-02-12T11:02:49.048Z,11.39
2019-02-12T11:03:59.130Z,11.23
2019-02-12T11:05:09.198Z,11.1
2019-02-12T11:06:19.269Z,11.09
2019-02-12T11:07:29.337Z,11.18
2019-02-12T11:08:39.135Z,11.2
2019-02-12T11:09:49.227Z,11.18
2019-02-12T11:10:59.281Z,11.18
2019-02-12T11:12:09.380Z,11.23
2019-02-12T11:13:19.456Z,11.05
2019-02-12T11:14:29.659Z,10.94
2019-02-12T11:15:39.459Z,10.95
2019-02-12T11:16:49.530Z,10.95
2019-02-12T11:17:59.588Z,10.97
2019-02-12T11:19:09.638Z,10.94
2019-02-12T11:20:19.799Z,11.05
2019-02-12T11:21:29.640Z,11.12
2019-02-12T11:22:39.816Z,11.03
2019-02-12T11:23:49.892Z,11
2019-02-12T11:24:59.964Z,11.06
2019-02-12T11:26:10.104Z,11.12
2019-02-12T11:27:20.151Z,11.18
2019-02-12T11:28:35.295Z,11.2
2019-02-12T11:29:45.636Z,11.16
2019-02-12T11:30:58.134Z,11.16
2019-02-12T11:32:11.566Z,11.12
2019-02-12T11:33:21.639Z,11.06
2019-02-12T11:34:31.189Z,11.2
2019-02-12T11:35:41.606Z,11.16
2019-02-12T11:36:51.786Z,11.05
2019-02-12T11:38:01.910Z,11
2019-02-12T11:39:11.739Z,10.98
2019-02-12T11:40:21.804Z,10.87
2019-02-12T11:41:31.629Z,10.84
2019-02-12T11:42:41.689Z,10.84
2019-02-12T11:43:51.754Z,10.97
2019-02-12T11:45:01.835Z,10.83
2019-02-12T11:46:11.647Z,10.77
2019-02-12T11:47:21.810Z,10.63
2019-02-12T11:48:31.929Z,10.42
2019-02-12T11:49:41.721Z,10.23
2019-02-12T11:50:51.840Z,10.13
2019-02-12T11:52:02.297Z,10.52
2019-02-12T11:53:12.105Z,10.66
2019-02-12T11:54:22.257Z,10.79
2019-02-12T11:55:32.319Z,10.79
2019-02-12T11:56:42.832Z,10.54
2019-02-12T11:57:52.907Z,10.15
2019-02-12T11:59:03.410Z,9.99
2019-02-12T12:00:13.525Z,9.9
2019-02-12T12:01:23.575Z,9.93
2019-02-12T12:02:33.635Z,9.9
2019-02-12T12:03:49.974Z,9.95
2019-02-12T12:05:00.031Z,9.96
2019-02-12T12:06:10.122Z,10.08
2019-02-12T12:07:20.042Z,10.05
2019-02-12T12:08:30.321Z,10.02
2019-02-12T12:09:40.384Z,9.95
2019-02-12T12:10:50.511Z,9.82
2019-02-12T12:12:00.576Z,9.84
2019-02-12T12:13:10.383Z,9.77
2019-02-12T12:14:20.197Z,9.85
2019-02-12T12:15:30.280Z,9.81
2019-02-12T12:16:40.343Z,9.98
2019-02-12T12:17:50.472Z,10.05
2019-02-12T12:19:00.542Z,9.99
2019-02-12T12:20:10.595Z,9.81
2019-02-12T12:21:20.800Z,9.67
2019-02-12T12:22:30.596Z,9.57
2019-02-12T12:23:40.880Z,9.62
2019-02-12T12:24:56.355Z,9.59
2019-02-12T12:26:06.621Z,9.42
2019-02-12T12:27:16.749Z,9.19
2019-02-12T12:28:26.561Z,8.9
2019-02-12T12:29:36.674Z,8.92
2019-02-12T12:30:46.745Z,8.8
2019-02-12T12:31:56.881Z,8.52
2019-02-12T12:33:07.186Z,8.35
2019-02-12T12:34:17.313Z,8.19
2019-02-12T12:35:27.431Z,8.07
2019-02-12T12:36:37.520Z,7.91
2019-02-12T12:37:48.110Z,7.89
2019-02-12T12:38:57.928Z,7.78
2019-02-12T12:40:08.582Z,7.8
2019-02-12T12:41:18.652Z,7.88
2019-02-12T12:42:28.512Z,7.98
2019-02-12T12:43:38.627Z,8.16
2019-02-12T12:44:48.738Z,8.39
2019-02-12T12:45:59.872Z,8.35
2019-02-12T12:47:10.230Z,8.39
2019-02-12T12:48:20.550Z,8.35
2019-02-12T12:49:33.101Z,8.31
2019-02-12T12:50:44.281Z,8.06
2019-02-12T12:51:54.590Z,7.92
2019-02-12T12:53:04.506Z,7.71
2019-02-12T12:54:14.650Z,7.58
2019-02-12T12:55:25.400Z,7.44
2019-02-12T12:56:35.551Z,7.34
2019-02-12T12:57:47.102Z,7.27
2019-02-12T12:58:57.275Z,7.26
2019-02-12T13:00:07.429Z,7.33
2019-02-12T13:01:17.631Z,7.23
2019-02-12T13:02:27.895Z,7.22
2019-02-12T13:03:37.954Z,7.29
2019-02-12T13:04:48.038Z,7.51
2019-02-12T13:05:58.108Z,7.8
2019-02-12T13:07:07.947Z,8.04
2019-02-12T13:08:18.211Z,8.25
2019-02-12T13:09:28.301Z,8.39
2019-02-12T13:10:38.150Z,8.44
2019-02-12T13:11:49.529Z,8.46
2019-02-12T13:12:59.594Z,8.17
2019-02-12T13:14:10.119Z,8.06
2019-02-12T13:15:20.194Z,7.95
2019-02-12T13:16:30.096Z,7.88
2019-02-12T13:17:40.171Z,7.71
2019-02-12T13:19:04.423Z,7.67
2019-02-12T13:20:16.205Z,7.61
2019-02-12T13:21:26.271Z,7.61
2019-02-12T13:22:36.090Z,7.68
2019-02-12T13:23:46.221Z,7.74
2019-02-12T13:24:56.288Z,7.85
2019-02-12T13:26:13.919Z,7.91
2019-02-12T13:27:23.988Z,7.95
2019-02-12T13:28:33.801Z,7.88
2019-02-12T13:29:43.604Z,7.77
2019-02-12T13:30:53.932Z,7.67
2019-02-12T13:32:04.005Z,7.54
2019-02-12T13:33:14.349Z,7.51
2019-02-12T13:34:24.200Z,7.44
2019-02-12T13:35:34.323Z,7.44
2019-02-12T13:36:44.122Z,7.37
2019-02-12T13:37:53.935Z,7.44
2019-02-12T13:39:04.613Z,7.49
2019-02-12T13:40:14.674Z,7.54
2019-02-12T13:41:24.768Z,7.37
2019-02-12T13:42:34.931Z,7.41
2019-02-12T13:43:45.145Z,7.26
2019-02-12T13:44:55.233Z,7.23
2019-02-12T13:46:05.333Z,7.15
2019-02-12T13:47:15.151Z,7.09
2019-02-12T13:48:25.476Z,7.05
2019-02-12T13:49:35.914Z,7
2019-02-12T13:50:45.795Z,6.98
2019-02-12T13:51:55.620Z,7
2019-02-12T13:53:05.695Z,6.93
2019-02-12T13:54:15.507Z,6.8
2019-02-12T13:55:27.510Z,6.83
2019-02-12T13:56:37.564Z,6.75
2019-02-12T13:57:47.627Z,6.76
2019-02-12T13:58:57.699Z,6.78
2019-02-12T14:00:07.672Z,6.76
2019-02-12T14:01:17.740Z,6.73
2019-02-12T14:02:27.476Z,6.9
2019-02-12T14:03:37.672Z,7.03
2019-02-12T14:04:47.968Z,7.11
2019-02-12T14:05:58.158Z,7.18
2019-02-12T14:07:08.461Z,7.37
2019-02-12T14:08:18.757Z,7.73
2019-02-12T14:09:28.581Z,7.99
2019-02-12T14:10:38.723Z,8.04
2019-02-12T14:11:48.520Z,8.19
2019-02-12T14:12:58.123Z,8.16
2019-02-12T14:14:10.147Z,8.06
2019-02-12T14:15:20.012Z,7.92
2019-02-12T14:16:30.102Z,8.06
2019-02-12T14:17:39.996Z,7.78
2019-02-12T14:18:50.318Z,7.54
2019-02-12T14:20:00.727Z,7.37
2019-02-12T14:21:10.790Z,7.19
2019-02-12T14:22:20.916Z,7.08
2019-02-12T14:23:32.337Z,6.97
2019-02-12T14:24:42.419Z,6.8
2019-02-12T14:25:52.500Z,6.72
2019-02-12T14:27:03.126Z,6.68
2019-02-12T14:28:13.205Z,6.75
2019-02-12T14:29:23.028Z,6.67
2019-02-12T14:30:33.339Z,6.65
2019-02-12T14:31:51.327Z,6.7
2019-02-12T14:33:02.941Z,6.8
2019-02-12T14:34:13.022Z,6.94
2019-02-12T14:35:22.825Z,7.05
2019-02-12T14:36:32.978Z,7.16
2019-02-12T14:37:43.204Z,7.34
2019-02-12T14:38:53.501Z,7.4
2019-02-12T14:40:03.734Z,7.44
2019-02-12T14:41:13.779Z,7.63
2019-02-12T14:42:23.713Z,7.7
2019-02-12T14:43:33.270Z,7.74
2019-02-12T14:44:43.388Z,7.85
2019-02-12T14:45:53.460Z,7.83
2019-02-12T14:47:03.569Z,7.89
2019-02-12T14:48:13.898Z,7.93
2019-02-12T14:49:24.201Z,7.74
2019-02-12T14:50:34.385Z,7.73
2019-02-12T14:51:44.218Z,7.78
2019-02-12T14:52:54.003Z,7.82
2019-02-12T14:54:04.173Z,7.93
2019-02-12T14:55:14.919Z,7.68
2019-02-12T14:56:24.999Z,7.54
2019-02-12T14:57:34.834Z,7.44
2019-02-12T14:58:44.972Z,7.39
2019-02-12T14:59:55.080Z,7.29
2019-02-12T15:01:06.480Z,7.18
2019-02-12T15:02:16.628Z,7.21
2019-02-12T15:03:26.752Z,7.05
2019-02-12T15:04:36.805Z,7.22
2019-02-12T15:05:46.938Z,7.15
2019-02-12T15:06:57.017Z,7.11
2019-02-12T15:08:08.273Z,7.04
2019-02-12T15:09:18.348Z,6.93
2019-02-12T15:10:28.667Z,6.95
2019-02-12T15:11:38.782Z,7.03
2019-02-12T15:12:48.844Z,7
2019-02-12T15:13:58.500Z,6.98
2019-02-12T15:15:08.970Z,6.88
2019-02-12T15:16:19.059Z,6.8
2019-02-12T15:17:29.131Z,6.82
2019-02-12T15:18:39.229Z,6.79
2019-02-12T15:19:49.053Z,6.85
2019-02-12T15:20:59.150Z,6.8
2019-02-12T15:22:09.222Z,6.76
2019-02-12T15:23:19.357Z,6.78
2019-02-12T15:24:29.889Z,6.64
2019-02-12T15:25:46.756Z,6.78
2019-02-12T15:26:56.556Z,6.8
2019-02-12T15:28:08.630Z,6.73
2019-02-12T15:29:18.692Z,6.8
2019-02-12T15:30:28.796Z,6.73
2019-02-12T15:31:39.729Z,6.68
2019-02-12T15:32:49.951Z,6.72
2019-02-12T15:34:00.086Z,6.68
2019-02-12T15:35:10.167Z,6.7
2019-02-12T15:36:20.278Z,6.68
2019-02-12T15:37:30.354Z,6.64
2019-02-12T15:38:40.511Z,6.7
2019-02-12T15:39:50.535Z,6.67
2019-02-12T15:41:00.784Z,6.65
2019-02-12T15:42:10.614Z,6.57
2019-02-12T15:43:22.063Z,6.54
2019-02-12T15:44:32.203Z,6.68
2019-02-12T15:45:44.996Z,6.65
2019-02-12T15:46:55.930Z,6.64
2019-02-12T15:48:08.600Z,6.62
2019-02-12T15:49:18.422Z,6.58
2019-02-12T15:50:28.485Z,6.67
2019-02-12T15:51:38.708Z,6.67
2019-02-12T15:52:48.783Z,6.68
2019-02-12T15:53:58.826Z,6.61
2019-02-12T15:55:08.638Z,6.64
2019-02-12T15:56:18.711Z,6.64
2019-02-12T15:57:30.183Z,6.47
2019-02-12T15:58:40.250Z,6.58
2019-02-12T15:59:50.084Z,6.62
2019-02-12T16:01:02.441Z,6.58
2019-02-12T16:02:16.187Z,6.52
2019-02-12T16:03:26.370Z,6.51
2019-02-12T16:04:36.201Z,6.47
2019-02-12T16:05:46.565Z,6.47